TDPD/DOM METAR and TAF weather

Enter ICAO airport designator
Station Type Date Time Source
TDPD METAR 2020/01/27 16:00 UTC NOAA

TDPD 271600Z 12012KT 9999 FEW026 28/22 Q1016


Station Type Date Time Source
TDPD Decoded METAR 2020/01/27 16:00 UTC NOAA

Melville Hall Airport, Dominica (TDPD) 15-32N 061-18W 14M
Jan 27, 2020 - 11:00 AM EST / 2020.01.27 1600 UTC
Wind: from the ESE (120 degrees) at 14 MPH (12 KT):0
Visibility: greater than 7 mile(s):0
Sky conditions: mostly clear
Temperature: 82 F (28 C)
Dew Point: 71 F (22 C)
Relative Humidity: 69%
Pressure (altimeter): 30.00 in. Hg (1016 hPa)
ob: TDPD 271600Z 12012KT 9999 FEW026 28/22 Q1016
cycle: 16

Station Type Date Time Source
TDPD TAF 2020/01/27 18:58 UTC NOAA

TAF TDPD 271700Z 2718/2818 12008KT 9999 SCT024

Example: see airport list